createdAt,value
2018-12-05T00:01:36.673Z,2.91
2018-12-05T00:04:03.009Z,2.90
2018-12-05T00:06:29.330Z,2.89
2018-12-05T00:08:55.616Z,2.88
2018-12-05T00:11:21.911Z,2.86
2018-12-05T00:13:48.207Z,2.83
2018-12-05T00:16:14.504Z,2.88
2018-12-05T00:18:40.793Z,2.86
2018-12-05T00:21:07.097Z,2.89
2018-12-05T00:23:33.389Z,2.88
2018-12-05T00:25:59.688Z,2.96
2018-12-05T00:28:25.990Z,2.94
2018-12-05T00:30:52.297Z,2.83
2018-12-05T00:33:18.576Z,2.84
2018-12-05T00:35:44.871Z,2.81
2018-12-05T00:38:11.170Z,2.72
2018-12-05T00:40:37.468Z,2.69
2018-12-05T00:43:03.755Z,2.63
2018-12-05T00:45:30.059Z,2.62
2018-12-05T00:47:56.344Z,2.61
2018-12-05T00:50:22.651Z,2.54
2018-12-05T00:52:48.951Z,2.47
2018-12-05T00:55:15.252Z,2.49
2018-12-05T00:57:41.538Z,2.44
2018-12-05T01:00:07.856Z,2.43
2018-12-05T01:02:34.134Z,2.44
2018-12-05T01:05:00.447Z,2.45
2018-12-05T01:07:26.737Z,2.45
2018-12-05T01:09:53.044Z,2.44
2018-12-05T01:12:19.328Z,2.53
2018-12-05T01:14:45.626Z,2.55
2018-12-05T01:17:11.921Z,2.55
2018-12-05T01:19:38.210Z,2.56
2018-12-05T01:22:04.512Z,2.54
2018-12-05T01:24:30.819Z,2.55
2018-12-05T01:26:57.099Z,2.55
2018-12-05T01:29:23.396Z,2.57
2018-12-05T01:31:49.697Z,2.51
2018-12-05T01:34:16.006Z,2.50
2018-12-05T01:36:42.348Z,2.46
2018-12-05T01:39:08.662Z,2.38
2018-12-05T01:41:34.978Z,2.36
2018-12-05T01:44:01.329Z,2.41
2018-12-05T01:46:27.617Z,2.40
2018-12-05T01:48:53.924Z,2.46
2018-12-05T01:51:20.202Z,2.55
2018-12-05T01:53:46.540Z,2.53
2018-12-05T01:56:12.838Z,2.50
2018-12-05T01:58:39.136Z,2.51
2018-12-05T02:01:05.427Z,2.57
2018-12-05T02:03:31.741Z,2.60
2018-12-05T02:05:58.054Z,2.52
2018-12-05T02:08:24.359Z,2.51
2018-12-05T02:10:50.687Z,2.53
2018-12-05T02:13:16.991Z,2.46
2018-12-05T02:15:43.312Z,2.46
2018-12-05T02:18:09.614Z,2.50
2018-12-05T02:20:35.951Z,2.54
2018-12-05T02:23:02.247Z,2.53
2018-12-05T02:25:28.546Z,2.53
2018-12-05T02:27:54.848Z,2.60
2018-12-05T02:30:21.142Z,2.59
2018-12-05T02:32:47.435Z,2.59
2018-12-05T02:35:13.740Z,2.66
2018-12-05T02:37:40.032Z,2.70
2018-12-05T02:40:06.335Z,2.70
2018-12-05T02:42:32.637Z,2.66
2018-12-05T02:44:58.923Z,2.66
2018-12-05T02:47:25.273Z,2.71
2018-12-05T02:49:51.553Z,2.73
2018-12-05T02:52:17.858Z,2.82
2018-12-05T02:54:44.145Z,2.74
2018-12-05T02:57:10.443Z,2.72
2018-12-05T02:59:36.738Z,2.69
2018-12-05T03:02:03.048Z,2.62
2018-12-05T03:04:29.332Z,2.55
2018-12-05T03:06:55.632Z,2.59
2018-12-05T03:09:21.925Z,2.62
2018-12-05T03:11:48.235Z,2.59
2018-12-05T03:14:14.511Z,2.69
2018-12-05T03:16:40.828Z,2.72
2018-12-05T03:19:07.099Z,2.66
2018-12-05T03:21:33.400Z,2.65
2018-12-05T03:23:59.697Z,2.68
2018-12-05T03:26:26.005Z,2.67
2018-12-05T03:28:52.334Z,2.71
2018-12-05T03:31:18.635Z,2.69
2018-12-05T03:33:44.928Z,2.74
2018-12-05T03:36:11.219Z,2.77
2018-12-05T03:38:37.511Z,2.71
2018-12-05T03:41:03.819Z,2.72
2018-12-05T03:43:30.094Z,2.71
2018-12-05T03:45:56.388Z,2.64
2018-12-05T03:48:22.691Z,2.74
2018-12-05T03:50:48.995Z,2.81
2018-12-05T03:53:15.280Z,2.80
2018-12-05T03:55:41.590Z,2.81
2018-12-05T03:58:07.876Z,2.75
2018-12-05T04:00:34.173Z,2.78
2018-12-05T04:03:00.468Z,2.88
2018-12-05T04:05:26.776Z,2.86
2018-12-05T04:07:53.066Z,2.81
2018-12-05T04:10:19.355Z,2.69
2018-12-05T04:12:45.651Z,2.70
2018-12-05T04:15:11.950Z,2.72
2018-12-05T04:17:38.243Z,2.71
2018-12-05T04:20:04.551Z,2.69
2018-12-05T04:22:30.830Z,2.70
2018-12-05T04:24:57.179Z,2.66
2018-12-05T04:27:23.469Z,2.69
2018-12-05T04:29:49.792Z,2.75
2018-12-05T04:32:16.105Z,2.80
2018-12-05T04:34:42.435Z,2.77
2018-12-05T04:37:08.753Z,2.83
2018-12-05T04:39:35.045Z,2.87
2018-12-05T04:42:01.347Z,2.93
2018-12-05T04:44:27.653Z,2.93
2018-12-05T04:46:53.946Z,2.90
2018-12-05T04:49:20.256Z,2.91
2018-12-05T04:51:46.548Z,2.91
2018-12-05T04:54:12.847Z,2.93
2018-12-05T04:56:39.164Z,2.95
2018-12-05T04:59:05.451Z,2.91
2018-12-05T05:01:31.738Z,2.92
2018-12-05T05:03:58.033Z,2.95
2018-12-05T05:06:24.331Z,2.93
2018-12-05T05:08:50.639Z,2.97
2018-12-05T05:11:16.925Z,2.98
2018-12-05T05:13:43.232Z,3.01
2018-12-05T05:16:09.511Z,3.02
2018-12-05T05:18:35.804Z,3.06
2018-12-05T05:21:02.116Z,3.08
2018-12-05T05:23:28.418Z,3.10
2018-12-05T05:25:54.748Z,3.09
2018-12-05T05:28:21.053Z,3.08
2018-12-05T05:30:47.347Z,3.10
2018-12-05T05:33:13.645Z,3.06
2018-12-05T05:35:39.947Z,3.17
2018-12-05T05:38:06.246Z,3.19
2018-12-05T05:40:32.522Z,3.18
2018-12-05T05:42:58.815Z,3.17
2018-12-05T05:45:25.117Z,3.16
2018-12-05T05:47:51.419Z,3.17
2018-12-05T05:50:17.707Z,3.21
2018-12-05T05:52:44.013Z,3.27
2018-12-05T05:55:10.349Z,3.31
2018-12-05T05:57:36.681Z,3.42
2018-12-05T06:00:06.847Z,3.52
2018-12-05T06:02:33.222Z,3.69
2018-12-05T06:04:59.539Z,3.96
2018-12-05T06:07:25.869Z,4.13
2018-12-05T06:09:52.160Z,4.27
2018-12-05T06:12:18.510Z,4.47
2018-12-05T06:14:44.853Z,4.72
2018-12-05T06:17:11.144Z,4.93
2018-12-05T06:19:37.478Z,4.92
2018-12-05T06:22:03.826Z,4.96
2018-12-05T06:24:30.884Z,5.06
2018-12-05T06:26:56.541Z,5.13
2018-12-05T06:29:22.870Z,5.12
2018-12-05T06:31:49.212Z,5.14
2018-12-05T06:34:15.536Z,5.16
2018-12-05T06:36:41.872Z,5.17
2018-12-05T06:39:08.217Z,5.17
2018-12-05T06:41:34.623Z,5.15
2018-12-05T06:44:00.951Z,5.12
2018-12-05T06:46:27.282Z,5.11
2018-12-05T06:48:53.719Z,5.09
2018-12-05T06:51:20.148Z,5.07
2018-12-05T06:53:46.504Z,5.05
2018-12-05T06:56:12.918Z,5.05
2018-12-05T06:58:39.237Z,5.07
2018-12-05T07:01:05.576Z,5.11
2018-12-05T07:03:31.925Z,5.16
2018-12-05T07:05:58.263Z,5.33
2018-12-05T07:08:24.554Z,5.48
2018-12-05T07:10:50.868Z,5.52
2018-12-05T07:13:17.157Z,5.56
2018-12-05T07:15:43.461Z,5.54
2018-12-05T07:18:09.752Z,5.56
2018-12-05T07:20:36.067Z,5.59
2018-12-05T07:23:02.346Z,5.64
2018-12-05T07:25:28.651Z,5.67
2018-12-05T07:27:54.938Z,5.69
2018-12-05T07:30:21.236Z,5.69
2018-12-05T07:32:47.542Z,5.70
2018-12-05T07:35:13.849Z,5.71
2018-12-05T07:37:40.122Z,5.72
2018-12-05T07:40:06.425Z,5.78
2018-12-05T07:42:32.767Z,5.80
2018-12-05T07:44:59.069Z,5.76
2018-12-05T07:47:25.382Z,5.73
2018-12-05T07:49:51.687Z,5.70
2018-12-05T07:52:17.968Z,5.68
2018-12-05T07:54:44.263Z,5.65
2018-12-05T07:57:10.733Z,5.64
2018-12-05T07:59:37.019Z,5.67
2018-12-05T08:02:03.313Z,5.99
2018-12-05T08:04:29.612Z,6.10
2018-12-05T08:06:55.901Z,6.15
2018-12-05T08:09:22.250Z,6.07
2018-12-05T08:11:48.579Z,6.03
2018-12-05T08:14:14.829Z,5.90
2018-12-05T08:16:41.142Z,5.82
2018-12-05T08:19:07.444Z,6.12
2018-12-05T08:21:33.736Z,6.79
2018-12-05T08:24:00.027Z,7.42
2018-12-05T08:26:26.353Z,7.64
2018-12-05T08:28:52.629Z,7.82
2018-12-05T08:31:18.943Z,7.97
2018-12-05T08:33:45.239Z,8.37
2018-12-05T08:36:11.534Z,8.23
2018-12-05T08:38:37.826Z,8.47
2018-12-05T08:41:04.142Z,8.60
2018-12-05T08:43:30.440Z,8.57
2018-12-05T08:45:56.735Z,8.69
2018-12-05T08:48:23.036Z,8.41
2018-12-05T08:50:49.364Z,8.51
2018-12-05T08:53:15.650Z,8.78
2018-12-05T08:55:41.965Z,8.68
2018-12-05T08:58:08.281Z,9.03
2018-12-05T09:00:34.584Z,8.88
2018-12-05T09:03:00.866Z,9.08
2018-12-05T09:05:27.199Z,9.35
2018-12-05T09:07:53.494Z,8.62
2018-12-05T09:10:19.794Z,8.30
2018-12-05T09:12:46.103Z,8.81
2018-12-05T09:15:12.399Z,9.05
2018-12-05T09:17:38.772Z,9.08
2018-12-05T09:20:05.045Z,8.64
2018-12-05T09:22:31.346Z,8.49
2018-12-05T09:24:57.640Z,8.30
2018-12-05T09:27:23.946Z,7.91
2018-12-05T09:29:50.238Z,7.32
2018-12-05T09:32:16.525Z,7.05
2018-12-05T09:34:42.829Z,6.96
2018-12-05T09:37:09.140Z,6.85
2018-12-05T09:39:35.447Z,6.87
2018-12-05T09:42:01.730Z,6.70
2018-12-05T09:44:28.031Z,6.60
2018-12-05T09:46:54.323Z,6.53
2018-12-05T09:49:20.628Z,6.55
2018-12-05T09:51:46.918Z,6.49
2018-12-05T09:54:13.222Z,6.42
2018-12-05T09:56:39.545Z,6.37
2018-12-05T09:59:05.857Z,6.36
2018-12-05T10:01:32.146Z,6.37
2018-12-05T10:03:58.459Z,6.36
2018-12-05T10:06:24.952Z,6.36
2018-12-05T10:08:51.252Z,6.33
2018-12-05T10:11:17.543Z,6.30
2018-12-05T10:13:43.850Z,6.25
2018-12-05T10:16:10.147Z,6.24
2018-12-05T10:18:36.438Z,6.18
2018-12-05T10:21:02.725Z,6.19
2018-12-05T10:23:29.036Z,6.14
2018-12-05T10:25:55.327Z,6.19
2018-12-05T10:28:21.638Z,6.25
2018-12-05T10:30:47.935Z,6.23
2018-12-05T10:33:14.221Z,6.05
2018-12-05T10:35:40.509Z,6.08
2018-12-05T10:38:06.816Z,6.05
2018-12-05T10:40:33.118Z,6.01
2018-12-05T10:42:59.422Z,5.90
2018-12-05T10:45:25.721Z,5.90
2018-12-05T10:47:52.057Z,5.93
2018-12-05T10:50:18.345Z,5.96
2018-12-05T10:52:44.650Z,5.99
2018-12-05T10:55:10.952Z,5.93
2018-12-05T10:57:37.252Z,5.80
2018-12-05T11:00:07.467Z,5.78
2018-12-05T11:02:33.777Z,5.74
2018-12-05T11:05:00.067Z,5.78
2018-12-05T11:07:26.378Z,5.91
2018-12-05T11:09:52.671Z,6.03
2018-12-05T11:12:18.970Z,6.00
2018-12-05T11:14:45.250Z,6.01
2018-12-05T11:17:11.559Z,6.01
2018-12-05T11:19:37.854Z,5.99
2018-12-05T11:22:04.191Z,5.95
2018-12-05T11:24:30.532Z,5.95
2018-12-05T11:26:56.826Z,5.95
2018-12-05T11:29:23.112Z,6.02
2018-12-05T11:31:49.425Z,6.00
2018-12-05T11:34:15.756Z,5.96
2018-12-05T11:36:42.047Z,5.87
2018-12-05T11:39:08.348Z,5.86
2018-12-05T11:41:34.670Z,5.87
2018-12-05T11:44:00.941Z,5.84
2018-12-05T11:46:27.247Z,5.79
2018-12-05T11:48:53.543Z,5.77
2018-12-05T11:51:19.834Z,5.80
2018-12-05T11:53:46.134Z,5.82
2018-12-05T11:56:12.485Z,5.73
2018-12-05T11:58:38.786Z,5.77
2018-12-05T12:01:05.089Z,5.78
2018-12-05T12:03:31.420Z,5.71
2018-12-05T12:05:57.685Z,5.68
2018-12-05T12:08:23.963Z,5.68
2018-12-05T12:10:50.293Z,5.63
2018-12-05T12:13:16.764Z,5.63
2018-12-05T12:15:43.024Z,5.60
2018-12-05T12:18:09.345Z,5.52
2018-12-05T12:20:35.724Z,5.41
2018-12-05T12:23:02.008Z,5.36
2018-12-05T12:25:28.329Z,5.39
2018-12-05T12:27:54.627Z,5.35
2018-12-05T12:30:20.970Z,5.30
2018-12-05T12:32:47.255Z,5.31
2018-12-05T12:35:13.564Z,5.28
2018-12-05T12:37:40.109Z,5.23
2018-12-05T12:40:06.429Z,5.20
2018-12-05T12:42:32.835Z,5.17
2018-12-05T12:44:59.091Z,5.13
2018-12-05T12:47:25.421Z,5.16
2018-12-05T12:49:51.727Z,5.14
2018-12-05T12:52:18.016Z,5.09
2018-12-05T12:54:44.370Z,5.05
2018-12-05T12:57:10.594Z,5.02
2018-12-05T12:59:36.945Z,5.00
2018-12-05T13:02:03.292Z,5.01
2018-12-05T13:04:29.609Z,5.01
2018-12-05T13:06:55.913Z,4.96
2018-12-05T13:09:22.197Z,4.94
2018-12-05T13:11:48.507Z,4.94
2018-12-05T13:14:14.800Z,4.99
2018-12-05T13:16:41.083Z,4.95
2018-12-05T13:19:07.392Z,4.87
2018-12-05T13:21:33.742Z,4.80
2018-12-05T13:24:00.049Z,4.76
2018-12-05T13:26:26.386Z,4.76
2018-12-05T13:28:52.682Z,4.78
2018-12-05T13:31:18.957Z,4.73
2018-12-05T13:33:45.264Z,4.71
2018-12-05T13:36:11.551Z,4.69
2018-12-05T13:38:37.880Z,4.71
2018-12-05T13:41:04.169Z,4.76
2018-12-05T13:43:30.471Z,4.74
2018-12-05T13:45:56.758Z,4.69
2018-12-05T13:48:23.065Z,4.69
2018-12-05T13:50:49.356Z,4.65
2018-12-05T13:53:15.643Z,4.64
2018-12-05T13:55:42.821Z,4.56
2018-12-05T13:58:09.204Z,4.55
2018-12-05T14:00:35.483Z,4.54
2018-12-05T14:03:01.796Z,4.55
2018-12-05T14:05:28.091Z,4.55
2018-12-05T14:07:54.678Z,4.55
2018-12-05T14:10:20.958Z,4.51
2018-12-05T14:12:47.823Z,4.46
2018-12-05T14:15:13.564Z,4.48
2018-12-05T14:17:39.900Z,4.45
2018-12-05T14:20:06.214Z,4.41
2018-12-05T14:22:32.505Z,4.37
2018-12-05T14:24:58.796Z,4.34
2018-12-05T14:27:25.111Z,4.33
2018-12-05T14:29:51.403Z,4.30
2018-12-05T14:32:17.700Z,4.32
2018-12-05T14:34:43.983Z,4.28
2018-12-05T14:37:10.293Z,4.29
2018-12-05T14:39:36.568Z,4.27
2018-12-05T14:42:02.910Z,4.23
2018-12-05T14:44:29.211Z,4.22
2018-12-05T14:46:55.498Z,4.22
2018-12-05T14:49:21.779Z,4.20
2018-12-05T14:51:48.084Z,4.19
2018-12-05T14:54:14.395Z,4.22
2018-12-05T14:56:40.733Z,4.18
2018-12-05T14:59:07.030Z,4.17
2018-12-05T15:01:33.325Z,4.11
2018-12-05T15:03:59.648Z,4.11
2018-12-05T15:06:25.951Z,4.13
2018-12-05T15:08:52.242Z,4.14
2018-12-05T15:11:18.562Z,4.13
2018-12-05T15:13:44.826Z,4.11
2018-12-05T15:16:11.174Z,4.09
2018-12-05T15:18:37.457Z,4.08
2018-12-05T15:21:03.817Z,4.05
2018-12-05T15:23:30.115Z,4.02
2018-12-05T15:25:56.406Z,4.06
2018-12-05T15:28:22.701Z,4.07
2018-12-05T15:30:49.052Z,4.01
2018-12-05T15:33:15.354Z,3.96
2018-12-05T15:35:41.639Z,3.97
2018-12-05T15:38:08.173Z,3.97
2018-12-05T15:40:34.465Z,3.95
2018-12-05T15:43:00.817Z,3.94
2018-12-05T15:45:27.111Z,3.91
2018-12-05T15:47:53.443Z,3.90
2018-12-05T15:50:19.734Z,3.88
2018-12-05T15:52:46.023Z,3.89
2018-12-05T15:55:12.326Z,3.87
2018-12-05T15:57:38.603Z,3.88
2018-12-05T16:00:05.869Z,3.86
2018-12-05T16:02:32.166Z,3.86
2018-12-05T16:04:58.453Z,3.81
2018-12-05T16:07:24.733Z,3.81
2018-12-05T16:09:51.034Z,3.81
2018-12-05T16:12:17.335Z,3.84
2018-12-05T16:14:43.624Z,3.81
2018-12-05T16:17:09.918Z,3.79
2018-12-05T16:19:36.204Z,3.81
2018-12-05T16:22:02.494Z,3.86
2018-12-05T16:24:28.790Z,3.82
2018-12-05T16:26:55.082Z,3.79
2018-12-05T16:29:21.382Z,3.82
2018-12-05T16:31:47.672Z,3.81
2018-12-05T16:34:14.004Z,3.81
2018-12-05T16:36:40.280Z,3.83
2018-12-05T16:39:06.612Z,3.83
2018-12-05T16:41:32.880Z,3.83
2018-12-05T16:44:00.538Z,3.81
2018-12-05T16:46:25.465Z,3.79
2018-12-05T16:48:51.775Z,3.77
2018-12-05T16:51:18.113Z,3.79
2018-12-05T16:53:44.486Z,3.78
2018-12-05T16:56:10.777Z,3.75
2018-12-05T16:58:37.061Z,3.75
2018-12-05T17:01:03.387Z,3.74
2018-12-05T17:03:29.777Z,3.74
2018-12-05T17:05:56.004Z,3.77
2018-12-05T17:08:22.295Z,3.76
2018-12-05T17:10:48.593Z,3.74
2018-12-05T17:13:14.907Z,3.73
2018-12-05T17:15:41.219Z,3.74
2018-12-05T17:18:07.498Z,3.68
2018-12-05T17:20:33.802Z,3.65
2018-12-05T17:23:00.102Z,3.65
2018-12-05T17:25:26.432Z,3.62
2018-12-05T17:27:52.747Z,3.62
2018-12-05T17:30:20.257Z,3.64
2018-12-05T17:32:46.554Z,3.64
2018-12-05T17:35:12.853Z,3.63
2018-12-05T17:37:39.145Z,3.58
2018-12-05T17:40:05.475Z,3.58
2018-12-05T17:42:31.780Z,3.59
2018-12-05T17:44:58.086Z,3.60
2018-12-05T17:47:24.390Z,3.59
2018-12-05T17:49:50.717Z,3.59
2018-12-05T17:52:17.066Z,3.57
2018-12-05T17:54:43.352Z,3.51
2018-12-05T17:57:09.676Z,3.49
2018-12-05T17:59:35.968Z,3.48
2018-12-05T18:02:02.277Z,3.50
2018-12-05T18:04:28.554Z,3.48
2018-12-05T18:06:54.860Z,3.48
2018-12-05T18:09:21.155Z,3.48
2018-12-05T18:11:47.446Z,3.46
2018-12-05T18:14:13.769Z,3.45
2018-12-05T18:16:40.033Z,3.45
2018-12-05T18:19:06.353Z,3.45
2018-12-05T18:21:32.674Z,3.46
2018-12-05T18:23:58.949Z,3.44
2018-12-05T18:26:25.295Z,3.44
2018-12-05T18:28:51.593Z,3.45
2018-12-05T18:31:18.108Z,3.44
2018-12-05T18:33:44.422Z,3.42
2018-12-05T18:36:10.702Z,3.42
2018-12-05T18:38:37.005Z,3.38
2018-12-05T18:41:03.305Z,3.33
2018-12-05T18:43:29.970Z,3.32
2018-12-05T18:45:56.250Z,3.29
2018-12-05T18:48:22.604Z,3.24
2018-12-05T18:50:48.902Z,3.26
2018-12-05T18:53:15.240Z,3.25
2018-12-05T18:55:41.543Z,3.23
2018-12-05T18:58:07.843Z,3.21
2018-12-05T19:00:34.164Z,3.21
2018-12-05T19:03:00.549Z,3.18
2018-12-05T19:05:26.769Z,3.15
2018-12-05T19:07:53.901Z,3.15
2018-12-05T19:10:20.235Z,3.14
2018-12-05T19:12:47.069Z,3.12
2018-12-05T19:15:14.040Z,3.10
2018-12-05T19:17:40.959Z,3.09
2018-12-05T19:20:08.006Z,3.10
2018-12-05T19:22:34.849Z,3.09
2018-12-05T19:25:01.780Z,3.06
2018-12-05T19:27:28.681Z,3.03
2018-12-05T19:29:55.686Z,3.03
2018-12-05T19:32:22.645Z,2.98
2018-12-05T19:34:48.942Z,2.98
2018-12-05T19:37:15.263Z,2.98
2018-12-05T19:39:41.563Z,2.95
2018-12-05T19:42:07.869Z,2.94
2018-12-05T19:44:34.177Z,2.95
2018-12-05T19:47:00.554Z,2.97
2018-12-05T19:49:26.915Z,2.96
2018-12-05T19:51:53.253Z,2.94
2018-12-05T19:54:19.540Z,2.90
2018-12-05T19:56:45.880Z,2.89
2018-12-05T19:59:12.205Z,2.87
2018-12-05T20:01:38.515Z,2.88
2018-12-05T20:04:04.845Z,2.88
2018-12-05T20:06:31.135Z,2.86
2018-12-05T20:08:57.441Z,2.84
2018-12-05T20:11:23.766Z,2.84
2018-12-05T20:13:50.074Z,2.85
2018-12-05T20:16:16.437Z,2.85
2018-12-05T20:18:42.807Z,2.86
2018-12-05T20:21:09.130Z,2.84
2018-12-05T20:23:35.428Z,2.83
2018-12-05T20:26:01.737Z,2.81
2018-12-05T20:28:28.293Z,2.79
2018-12-05T20:30:54.606Z,2.77
2018-12-05T20:33:20.886Z,2.76
2018-12-05T20:35:47.195Z,2.76
2018-12-05T20:38:13.496Z,2.78
2018-12-05T20:40:39.896Z,2.81
2018-12-05T20:43:06.079Z,2.78
2018-12-05T20:45:32.436Z,2.73
2018-12-05T20:47:58.817Z,2.72
2018-12-05T20:50:25.409Z,2.69
2018-12-05T20:52:51.780Z,2.68
2018-12-05T20:55:18.242Z,2.68
2018-12-05T20:57:44.585Z,2.68
2018-12-05T21:00:10.881Z,2.74
2018-12-05T21:02:37.182Z,2.70
2018-12-05T21:05:03.544Z,2.61
2018-12-05T21:07:29.837Z,2.60
2018-12-05T21:09:56.176Z,2.60
2018-12-05T21:12:22.473Z,2.62
2018-12-05T21:14:48.769Z,2.65
2018-12-05T21:17:15.067Z,2.68
2018-12-05T21:19:41.394Z,2.66
2018-12-05T21:22:07.677Z,2.61
2018-12-05T21:24:33.974Z,2.58
2018-12-05T21:27:00.273Z,2.57
2018-12-05T21:29:26.562Z,2.54
2018-12-05T21:31:52.856Z,2.53
2018-12-05T21:34:19.168Z,2.47
2018-12-05T21:36:45.450Z,2.49
2018-12-05T21:39:11.750Z,2.49
2018-12-05T21:41:38.045Z,2.48
2018-12-05T21:44:04.378Z,2.49
2018-12-05T21:46:30.681Z,2.45
2018-12-05T21:48:57.005Z,2.47
2018-12-05T21:51:23.288Z,2.48
2018-12-05T21:53:49.583Z,2.48
2018-12-05T21:56:15.872Z,2.48
2018-12-05T21:58:42.173Z,2.46
2018-12-05T22:01:08.444Z,2.45
2018-12-05T22:03:34.776Z,2.39
2018-12-05T22:06:01.086Z,2.39
2018-12-05T22:08:27.383Z,2.44
2018-12-05T22:10:53.860Z,2.47
2018-12-05T22:13:21.389Z,2.45
2018-12-05T22:15:47.661Z,2.42
2018-12-05T22:18:13.975Z,2.41
2018-12-05T22:20:40.335Z,2.42
2018-12-05T22:23:06.658Z,2.37
2018-12-05T22:25:32.929Z,2.39
2018-12-05T22:27:59.234Z,2.38
2018-12-05T22:30:25.518Z,2.36
2018-12-05T22:32:51.811Z,2.34
2018-12-05T22:35:18.105Z,2.36
2018-12-05T22:37:44.409Z,2.31
2018-12-05T22:40:10.712Z,2.31
2018-12-05T22:42:36.998Z,2.27
2018-12-05T22:45:03.298Z,2.27
2018-12-05T22:47:29.609Z,2.26
2018-12-05T22:49:55.908Z,2.23
2018-12-05T22:52:22.208Z,2.22
2018-12-05T22:54:48.481Z,2.24
2018-12-05T22:57:14.799Z,2.24
2018-12-05T22:59:41.141Z,2.23
2018-12-05T23:02:07.441Z,2.19
2018-12-05T23:04:33.720Z,2.17
2018-12-05T23:07:00.028Z,2.16
2018-12-05T23:09:26.315Z,2.14
2018-12-05T23:11:52.635Z,2.14
2018-12-05T23:14:18.967Z,2.15
2018-12-05T23:16:45.263Z,2.14
2018-12-05T23:19:11.579Z,2.10
2018-12-05T23:21:37.872Z,2.12
2018-12-05T23:24:04.172Z,2.13
2018-12-05T23:26:30.464Z,2.11
2018-12-05T23:28:56.759Z,2.09
2018-12-05T23:31:23.063Z,2.08
2018-12-05T23:33:49.351Z,2.07
2018-12-05T23:36:15.650Z,2.06
2018-12-05T23:38:41.961Z,2.05
2018-12-05T23:41:08.257Z,2.05
2018-12-05T23:43:34.609Z,2.01
2018-12-05T23:46:00.898Z,2.04
2018-12-05T23:48:27.188Z,2.04
2018-12-05T23:50:53.596Z,2.01
2018-12-05T23:53:19.872Z,2.00
2018-12-05T23:55:46.187Z,1.97
2018-12-05T23:58:12.539Z,1.95
